createdAt,value
2022-11-08T00:00:04.022Z,4.10
2022-11-08T00:02:33.762Z,5.83
2022-11-08T00:05:20.582Z,6.27
2022-11-08T00:08:06.083Z,3.93
2022-11-08T00:10:51.414Z,4.60
2022-11-08T00:13:36.909Z,4.63
2022-11-08T00:16:04.885Z,3.63
2022-11-08T00:18:32.725Z,4.03
2022-11-08T00:21:04.187Z,4.67
2022-11-08T00:23:32.182Z,3.83
2022-11-08T00:26:00.170Z,4.50
2022-11-08T00:28:28.057Z,4.43
2022-11-08T00:30:55.975Z,3.90
2022-11-08T00:33:23.942Z,4.20
2022-11-08T00:35:51.865Z,5.00
2022-11-08T00:38:21.154Z,3.23
2022-11-08T00:40:49.084Z,5.10
2022-11-08T00:43:17.936Z,5.50
2022-11-08T00:45:45.949Z,4.07
2022-11-08T00:48:13.928Z,4.90
2022-11-08T00:50:42.230Z,3.47
2022-11-08T00:53:10.113Z,5.57
2022-11-08T00:55:39.409Z,4.70
2022-11-08T00:58:07.283Z,5.50
2022-11-08T01:00:35.298Z,5.13
2022-11-08T01:03:21.460Z,4.23
2022-11-08T01:05:50.097Z,4.97
2022-11-08T01:08:19.484Z,4.33
2022-11-08T01:10:50.984Z,8.73
2022-11-08T01:13:19.517Z,6.80
2022-11-08T01:15:48.491Z,5.20
2022-11-08T01:18:20.153Z,5.63
2022-11-08T01:20:49.872Z,5.60
2022-11-08T01:23:18.662Z,3.30
2022-11-08T01:25:50.756Z,6.13
2022-11-08T01:28:19.055Z,3.93
2022-11-08T01:30:47.620Z,5.03
2022-11-08T01:33:16.035Z,4.27
2022-11-08T01:35:46.478Z,5.97
2022-11-08T01:38:14.746Z,3.47
2022-11-08T01:40:45.066Z,4.87
2022-11-08T01:43:38.561Z,3.33
2022-11-08T01:46:36.886Z,3.90
2022-11-08T01:49:27.238Z,4.27
2022-11-08T01:52:01.185Z,3.77
2022-11-08T01:54:35.012Z,5.77
2022-11-08T01:57:05.336Z,5.47
2022-11-08T01:59:36.642Z,3.80
2022-11-08T02:02:05.686Z,5.40
2022-11-08T02:04:34.069Z,4.23
2022-11-08T02:07:02.703Z,3.60
2022-11-08T02:09:33.164Z,3.90
2022-11-08T02:12:01.361Z,4.93
2022-11-08T02:14:29.552Z,4.67
2022-11-08T02:16:58.857Z,3.30
2022-11-08T02:19:34.679Z,3.30
2022-11-08T02:22:06.871Z,5.87
2022-11-08T02:24:37.194Z,3.67
2022-11-08T02:27:05.651Z,4.40
2022-11-08T02:29:35.901Z,3.33
2022-11-08T02:32:06.298Z,3.60
2022-11-08T02:34:37.372Z,4.17
2022-11-08T02:37:06.374Z,3.17
2022-11-08T02:39:35.644Z,5.17
2022-11-08T02:42:03.665Z,4.93
2022-11-08T02:44:31.538Z,3.53
2022-11-08T02:46:59.421Z,3.77
2022-11-08T02:49:27.289Z,3.90
2022-11-08T02:51:55.594Z,4.00
2022-11-08T02:54:23.829Z,4.73
2022-11-08T02:56:53.100Z,3.20
2022-11-08T02:59:21.101Z,7.47
2022-11-08T03:01:49.150Z,10.57
2022-11-08T03:04:17.347Z,8.63
2022-11-08T03:06:45.433Z,9.27
2022-11-08T03:09:13.857Z,3.80
2022-11-08T03:11:42.109Z,4.10
2022-11-08T03:14:11.477Z,5.40
2022-11-08T03:16:39.354Z,4.00
2022-11-08T03:19:07.287Z,3.07
2022-11-08T03:21:36.652Z,5.23
2022-11-08T03:24:04.739Z,4.27
2022-11-08T03:26:32.808Z,6.53
2022-11-08T03:29:00.725Z,4.10
2022-11-08T03:31:29.934Z,4.47
2022-11-08T03:33:57.873Z,4.20
2022-11-08T03:36:26.347Z,3.30
2022-11-08T03:38:54.339Z,3.80
2022-11-08T03:41:22.180Z,4.57
2022-11-08T03:43:50.114Z,5.33
2022-11-08T03:46:18.018Z,3.43
2022-11-08T03:48:47.379Z,3.47
2022-11-08T03:51:15.388Z,4.60
2022-11-08T03:53:43.286Z,4.47
2022-11-08T03:56:11.304Z,3.83
2022-11-08T03:58:40.038Z,5.10
2022-11-08T04:01:08.630Z,3.57
2022-11-08T04:03:36.626Z,4.50
2022-11-08T04:06:06.265Z,4.07
2022-11-08T04:08:34.171Z,4.80
2022-11-08T04:11:22.443Z,6.87
2022-11-08T04:14:07.769Z,3.93
2022-11-08T04:16:35.800Z,3.13
2022-11-08T04:19:21.129Z,4.87
2022-11-08T04:21:54.012Z,2.67
2022-11-08T04:24:22.320Z,6.83
2022-11-08T04:26:50.214Z,3.33
2022-11-08T04:29:18.261Z,5.20
2022-11-08T04:31:46.154Z,5.50
2022-11-08T04:34:14.047Z,4.53
2022-11-08T04:36:41.990Z,4.27
2022-11-08T04:39:11.198Z,3.20
2022-11-08T04:41:39.102Z,5.20
2022-11-08T04:44:07.205Z,3.00
2022-11-08T04:46:53.758Z,3.63
2022-11-08T04:49:21.725Z,4.67
2022-11-08T04:51:50.277Z,3.27
2022-11-08T04:54:19.574Z,3.20
2022-11-08T04:56:47.548Z,2.83
2022-11-08T04:59:15.473Z,5.40
2022-11-08T05:01:43.337Z,4.20
2022-11-08T05:04:11.332Z,5.00
2022-11-08T05:06:39.206Z,3.50
2022-11-08T05:09:07.112Z,3.90
2022-11-08T05:11:36.327Z,4.67
2022-11-08T05:14:04.247Z,3.07
2022-11-08T05:16:33.491Z,3.33
2022-11-08T05:19:02.062Z,5.30
2022-11-08T05:21:50.077Z,4.77
2022-11-08T05:24:19.089Z,4.93
2022-11-08T05:26:49.118Z,5.30
2022-11-08T05:29:17.777Z,7.37
2022-11-08T05:31:45.756Z,7.30
2022-11-08T05:34:13.701Z,3.90
2022-11-08T05:36:41.904Z,4.63
2022-11-08T05:39:10.097Z,4.60
2022-11-08T05:41:37.906Z,6.20
2022-11-08T05:44:07.254Z,6.10
2022-11-08T05:46:35.243Z,5.13
2022-11-08T05:49:03.212Z,4.43
2022-11-08T05:51:32.351Z,9.20
2022-11-08T05:54:00.337Z,6.27
2022-11-08T05:56:28.299Z,6.50
2022-11-08T05:58:56.272Z,9.57
2022-11-08T06:01:25.652Z,16.37
2022-11-08T06:03:53.544Z,17.03
2022-11-08T06:06:22.830Z,9.73
2022-11-08T06:08:51.889Z,12.53
2022-11-08T06:11:22.378Z,12.00
2022-11-08T06:14:13.552Z,10.63
2022-11-08T06:16:43.311Z,8.40
2022-11-08T06:19:11.209Z,9.03
2022-11-08T06:21:39.209Z,7.50
2022-11-08T06:24:07.994Z,8.47
2022-11-08T06:26:36.033Z,6.33
2022-11-08T06:29:03.901Z,7.50
2022-11-08T06:31:31.779Z,8.70
2022-11-08T06:34:00.969Z,6.40
2022-11-08T06:36:28.889Z,6.37
2022-11-08T06:38:56.959Z,6.97
2022-11-08T06:41:32.866Z,9.20
2022-11-08T06:44:01.041Z,9.67
2022-11-08T06:46:29.241Z,6.57
2022-11-08T06:48:57.165Z,6.80
2022-11-08T06:51:26.457Z,6.73
2022-11-08T06:53:54.356Z,6.30
2022-11-08T06:56:22.239Z,6.00
2022-11-08T06:58:52.067Z,7.07
2022-11-08T07:01:19.995Z,6.67
2022-11-08T07:03:48.001Z,5.90
2022-11-08T07:06:15.930Z,4.33
2022-11-08T07:08:45.229Z,6.47
2022-11-08T07:11:13.091Z,6.27
2022-11-08T07:13:40.902Z,9.67
2022-11-08T07:16:10.010Z,6.83
2022-11-08T07:18:38.055Z,9.87
2022-11-08T07:21:06.346Z,4.57
2022-11-08T07:23:34.635Z,6.43
2022-11-08T07:26:07.377Z,9.77
2022-11-08T07:28:35.548Z,10.73
2022-11-08T07:31:05.993Z,10.70
2022-11-08T07:33:34.066Z,6.97
2022-11-08T07:36:02.323Z,6.90
2022-11-08T07:38:30.296Z,7.20
2022-11-08T07:40:59.038Z,7.73
2022-11-08T07:43:29.397Z,7.63
2022-11-08T07:46:02.312Z,8.93
2022-11-08T07:48:31.596Z,7.07
2022-11-08T07:50:59.673Z,6.20
2022-11-08T07:53:27.637Z,6.43
2022-11-08T07:55:55.569Z,8.33
2022-11-08T07:58:23.494Z,9.37
2022-11-08T08:00:52.843Z,12.77
2022-11-08T08:03:21.387Z,11.97
2022-11-08T08:05:59.548Z,6.73
2022-11-08T08:08:28.980Z,6.43
2022-11-08T08:10:59.434Z,7.83
2022-11-08T08:13:27.408Z,8.40
2022-11-08T08:15:59.534Z,9.13
2022-11-08T08:18:27.464Z,6.80
2022-11-08T08:20:55.449Z,8.77
2022-11-08T08:23:23.316Z,9.53
2022-11-08T08:25:51.163Z,9.70
2022-11-08T08:28:19.084Z,11.47
2022-11-08T08:30:47.165Z,9.53
2022-11-08T08:33:33.465Z,9.20
2022-11-08T08:36:01.999Z,9.27
2022-11-08T08:38:30.908Z,11.47
2022-11-08T08:40:59.129Z,10.67
2022-11-08T08:43:28.472Z,2.93
2022-11-08T08:45:59.163Z,3.63
2022-11-08T08:48:28.648Z,5.00
2022-11-08T08:50:56.630Z,3.60
2022-11-08T08:53:25.215Z,2.10
2022-11-08T08:55:53.328Z,3.03
2022-11-08T08:58:22.014Z,4.73
2022-11-08T09:03:39.684Z,2.53
2022-11-08T09:06:07.873Z,5.23
2022-11-08T09:08:35.985Z,3.27
2022-11-08T09:11:04.198Z,3.20
2022-11-08T09:13:32.491Z,3.43
2022-11-08T09:16:02.632Z,4.63
2022-11-08T09:18:31.045Z,3.60
2022-11-08T09:21:01.252Z,4.77
2022-11-08T09:23:29.443Z,5.00
2022-11-08T09:25:58.769Z,4.13
2022-11-08T09:28:31.216Z,3.33
2022-11-08T09:31:04.133Z,1.93
2022-11-08T09:33:32.574Z,3.60
2022-11-08T09:36:02.415Z,2.40
2022-11-08T09:38:31.102Z,2.87
2022-11-08T09:41:15.008Z,4.00
2022-11-08T09:43:58.920Z,3.37
2022-11-08T09:46:36.455Z,2.50
2022-11-08T09:49:07.199Z,6.63
2022-11-08T09:51:37.828Z,3.27
2022-11-08T09:54:18.483Z,4.53
2022-11-08T09:56:49.155Z,5.97
2022-11-08T09:59:31.381Z,11.63
2022-11-08T10:01:59.528Z,7.90
2022-11-08T10:04:30.513Z,10.07
2022-11-08T10:07:10.252Z,4.63
2022-11-08T10:09:49.664Z,3.97
2022-11-08T10:12:26.752Z,9.20
2022-11-08T10:15:11.711Z,3.63
2022-11-08T10:17:51.801Z,3.37
2022-11-08T10:20:32.021Z,7.70
2022-11-08T10:23:17.157Z,2.40
2022-11-08T10:25:48.832Z,2.60
2022-11-08T10:28:19.874Z,2.53
2022-11-08T10:30:50.477Z,4.53
2022-11-08T10:33:23.369Z,4.30
2022-11-08T10:36:01.768Z,2.27
2022-11-08T10:38:39.388Z,3.57
2022-11-08T10:41:13.962Z,1.83
2022-11-08T10:43:45.855Z,1.87
2022-11-08T10:46:31.402Z,1.60
2022-11-08T10:49:09.359Z,4.57
2022-11-08T10:51:37.300Z,7.83
2022-11-08T10:54:06.796Z,9.27
2022-11-08T10:56:56.644Z,6.13
2022-11-08T10:59:31.888Z,4.43
2022-11-08T11:02:00.611Z,3.97
2022-11-08T11:04:30.960Z,5.87
2022-11-08T11:07:02.889Z,2.50
2022-11-08T11:09:32.095Z,3.00
2022-11-08T11:12:02.444Z,2.80
2022-11-08T11:14:30.498Z,2.67
2022-11-08T11:17:01.549Z,3.80
2022-11-08T11:19:30.557Z,2.63
2022-11-08T11:22:03.543Z,1.77
2022-11-08T11:24:33.107Z,2.20
2022-11-08T11:27:04.334Z,4.00
2022-11-08T11:29:33.413Z,1.83
2022-11-08T11:32:24.421Z,2.70
2022-11-08T11:34:55.914Z,4.20
2022-11-08T11:37:35.766Z,2.03
2022-11-08T11:40:14.041Z,4.90
2022-11-08T11:42:48.705Z,3.77
2022-11-08T11:45:24.738Z,4.50
2022-11-08T11:47:54.721Z,4.07
2022-11-08T11:50:29.607Z,6.17
2022-11-08T11:52:58.071Z,3.80
2022-11-08T11:55:36.810Z,2.53
2022-11-08T11:58:20.356Z,2.53
2022-11-08T12:00:56.254Z,4.53
2022-11-08T12:03:48.767Z,3.80
2022-11-08T12:06:35.871Z,2.13
2022-11-08T12:09:15.686Z,2.67
2022-11-08T12:12:03.659Z,3.87
2022-11-08T12:14:44.916Z,4.90
2022-11-08T12:17:39.016Z,3.37
2022-11-08T12:20:26.591Z,2.10
2022-11-08T12:23:04.680Z,1.77
2022-11-08T12:25:35.602Z,2.63
2022-11-08T12:28:11.723Z,3.03
2022-11-08T12:30:46.441Z,3.37
2022-11-08T12:33:25.486Z,2.40
2022-11-08T12:36:04.273Z,2.70
2022-11-08T12:38:38.849Z,2.13
2022-11-08T12:41:16.917Z,1.97
2022-11-08T12:44:10.753Z,1.93
2022-11-08T12:46:48.454Z,2.57
2022-11-08T12:49:30.554Z,1.57
2022-11-08T12:52:15.906Z,2.97
2022-11-08T12:54:47.312Z,1.40
2022-11-08T12:57:17.763Z,2.27
2022-11-08T12:59:49.926Z,2.77
2022-11-08T13:02:23.227Z,1.80
2022-11-08T13:04:58.790Z,2.20
2022-11-08T13:07:37.785Z,2.07
2022-11-08T13:10:13.824Z,3.00
2022-11-08T13:12:49.086Z,1.83
2022-11-08T13:15:21.244Z,1.70
2022-11-08T13:18:24.344Z,1.77
2022-11-08T13:20:53.072Z,1.70
2022-11-08T13:23:30.836Z,2.37
2022-11-08T13:26:21.291Z,2.70
2022-11-08T13:28:50.476Z,1.90
2022-11-08T13:31:30.447Z,1.33
2022-11-08T13:34:30.773Z,2.13
2022-11-08T13:37:30.908Z,2.70
2022-11-08T13:40:24.457Z,1.80
2022-11-08T13:43:14.908Z,1.27
2022-11-08T13:45:43.898Z,1.50
2022-11-08T13:48:36.384Z,3.23
2022-11-08T13:51:31.907Z,2.10
2022-11-08T13:54:01.664Z,3.50
2022-11-08T13:56:49.655Z,2.20
2022-11-08T14:00:00.113Z,3.60
2022-11-08T14:02:49.150Z,1.47
2022-11-08T14:05:41.500Z,1.93
2022-11-08T14:08:22.003Z,5.10
2022-11-08T14:11:16.194Z,2.03
2022-11-08T14:14:11.511Z,1.83
2022-11-08T14:16:47.425Z,3.93
2022-11-08T14:19:22.377Z,4.17
2022-11-08T14:21:55.302Z,3.40
2022-11-08T14:24:26.040Z,2.67
2022-11-08T14:26:54.132Z,2.50
2022-11-08T14:29:25.164Z,3.20
2022-11-08T14:32:04.721Z,2.50
2022-11-08T14:34:35.308Z,3.30
2022-11-08T14:37:06.829Z,3.30
2022-11-08T14:39:37.643Z,2.40
2022-11-08T14:42:13.320Z,2.07
2022-11-08T14:44:45.186Z,3.70
2022-11-08T14:47:24.922Z,2.27
2022-11-08T14:49:53.050Z,2.50
2022-11-08T14:52:25.732Z,1.83
2022-11-08T14:55:03.147Z,1.70
2022-11-08T14:57:38.672Z,1.67
2022-11-08T15:00:18.872Z,4.23
2022-11-08T15:02:49.826Z,8.70
2022-11-08T15:05:31.615Z,4.57
2022-11-08T15:08:02.866Z,3.33
2022-11-08T15:10:30.995Z,2.97
2022-11-08T15:12:59.075Z,2.23
2022-11-08T15:15:30.080Z,3.63
2022-11-08T15:18:13.573Z,4.77
2022-11-08T15:20:53.543Z,2.20
2022-11-08T15:23:41.661Z,6.63
2022-11-08T15:26:21.189Z,5.00
2022-11-08T15:29:00.400Z,3.87
2022-11-08T15:31:30.446Z,7.53
2022-11-08T15:33:58.663Z,5.50
2022-11-08T15:36:31.785Z,4.93
2022-11-08T15:39:02.272Z,3.50
2022-11-08T15:41:33.557Z,3.53
2022-11-08T15:44:20.346Z,3.53
2022-11-08T15:46:48.648Z,4.50
2022-11-08T15:49:20.804Z,3.67
2022-11-08T15:51:49.862Z,5.03
2022-11-08T15:54:20.247Z,2.03
2022-11-08T15:56:49.302Z,6.03
2022-11-08T15:59:21.454Z,3.00
2022-11-08T16:01:55.070Z,2.10
2022-11-08T16:04:23.153Z,3.33
2022-11-08T16:06:51.631Z,2.97
2022-11-08T16:09:21.110Z,3.17
2022-11-08T16:11:49.715Z,2.70
2022-11-08T16:14:20.572Z,3.50
2022-11-08T16:16:48.919Z,3.70
2022-11-08T16:19:21.529Z,5.37
2022-11-08T16:21:49.749Z,12.93
2022-11-08T16:24:18.287Z,17.13
2022-11-08T16:26:48.763Z,5.47
2022-11-08T16:29:21.791Z,30.07
2022-11-08T16:31:50.673Z,29.00
2022-11-08T16:34:19.277Z,6.80
2022-11-08T16:36:48.909Z,3.47
2022-11-08T16:39:18.503Z,6.27
2022-11-08T16:41:48.014Z,7.37
2022-11-08T16:44:15.960Z,2.90
2022-11-08T16:46:44.155Z,5.50
2022-11-08T16:49:20.750Z,5.17
2022-11-08T16:51:48.888Z,4.70
2022-11-08T16:54:20.144Z,6.80
2022-11-08T16:56:51.572Z,12.73
2022-11-08T16:59:19.821Z,9.77
2022-11-08T17:01:49.866Z,9.77
2022-11-08T17:04:17.721Z,6.87
2022-11-08T17:06:45.654Z,9.50
2022-11-08T17:09:13.629Z,8.37
2022-11-08T17:11:41.727Z,9.17
2022-11-08T17:14:13.578Z,11.33
2022-11-08T17:16:41.649Z,16.17
2022-11-08T17:19:09.536Z,9.47
2022-11-08T17:21:44.601Z,8.53
2022-11-08T17:24:19.844Z,5.97
2022-11-08T17:26:49.447Z,6.67
2022-11-08T17:29:18.809Z,5.13
2022-11-08T17:31:46.647Z,6.83
2022-11-08T17:34:15.182Z,10.03
2022-11-08T17:36:43.051Z,3.30
2022-11-08T17:39:13.970Z,7.63
2022-11-08T17:41:42.218Z,6.57
2022-11-08T17:44:10.301Z,7.27
2022-11-08T17:46:39.538Z,4.40
2022-11-08T17:49:07.440Z,5.40
2022-11-08T17:51:36.493Z,7.43
2022-11-08T17:54:04.719Z,8.43
2022-11-08T17:56:32.568Z,7.87
2022-11-08T17:59:02.901Z,6.67
2022-11-08T18:01:32.167Z,8.23
2022-11-08T18:04:03.349Z,6.13
2022-11-08T18:06:31.434Z,4.93
2022-11-08T18:08:59.502Z,6.40
2022-11-08T18:11:27.426Z,4.23
2022-11-08T18:13:55.768Z,6.63
2022-11-08T18:16:23.650Z,6.60
2022-11-08T18:18:51.953Z,6.40
2022-11-08T18:21:21.303Z,8.73
2022-11-08T18:23:49.530Z,5.90
2022-11-08T18:26:19.028Z,7.20
2022-11-08T18:28:46.876Z,5.10
2022-11-08T18:31:16.776Z,4.90
2022-11-08T18:33:44.830Z,5.20
2022-11-08T18:36:15.049Z,8.60
2022-11-08T18:38:44.638Z,10.07
2022-11-08T18:41:14.141Z,6.47
2022-11-08T18:43:42.725Z,6.53
2022-11-08T18:46:12.958Z,5.33
2022-11-08T18:48:41.478Z,7.43
2022-11-08T18:51:11.524Z,7.43
2022-11-08T18:53:40.345Z,5.33
2022-11-08T18:56:10.427Z,4.47
2022-11-08T18:58:38.640Z,6.50
2022-11-08T19:01:07.383Z,3.77
2022-11-08T19:03:35.489Z,5.03
2022-11-08T19:06:03.602Z,9.23
2022-11-08T19:08:32.513Z,5.47
2022-11-08T19:11:02.891Z,6.47
2022-11-08T19:13:33.550Z,4.67
2022-11-08T19:16:04.107Z,6.23
2022-11-08T19:18:32.209Z,6.60
2022-11-08T19:21:02.664Z,6.70
2022-11-08T19:23:30.972Z,3.90
2022-11-08T19:26:00.971Z,5.47
2022-11-08T19:28:33.082Z,6.80
2022-11-08T19:31:02.627Z,3.47
2022-11-08T19:33:32.095Z,4.20
2022-11-08T19:36:05.153Z,6.00
2022-11-08T19:38:33.631Z,4.80
2022-11-08T19:41:05.592Z,4.87
2022-11-08T19:43:35.157Z,3.47
2022-11-08T19:46:06.962Z,5.00
2022-11-08T19:48:36.786Z,3.70
2022-11-08T19:51:06.463Z,2.67
2022-11-08T19:53:35.149Z,7.17
2022-11-08T19:56:04.627Z,5.87
2022-11-08T19:58:33.479Z,4.33
2022-11-08T20:01:09.571Z,4.83
2022-11-08T20:03:37.649Z,4.03
2022-11-08T20:06:06.033Z,5.70
2022-11-08T20:08:34.083Z,7.40
2022-11-08T20:11:02.298Z,5.70
2022-11-08T20:13:30.190Z,5.23
2022-11-08T20:16:11.232Z,3.90
2022-11-08T20:18:39.156Z,5.63
2022-11-08T20:21:07.925Z,4.23
2022-11-08T20:23:36.266Z,3.47
2022-11-08T20:26:06.921Z,6.03
2022-11-08T20:28:36.371Z,5.13
2022-11-08T20:31:13.890Z,4.53
2022-11-08T20:33:42.433Z,6.67
2022-11-08T20:36:12.567Z,9.43
2022-11-08T20:38:40.955Z,18.47
2022-11-08T20:41:17.723Z,7.63
2022-11-08T20:43:47.709Z,7.30
2022-11-08T20:46:18.683Z,4.80
2022-11-08T20:48:50.620Z,7.63
2022-11-08T20:51:20.752Z,5.43
2022-11-08T20:53:49.102Z,5.87
2022-11-08T20:56:18.395Z,4.73
2022-11-08T20:58:47.753Z,6.63
2022-11-08T21:01:18.956Z,5.80
2022-11-08T21:03:47.432Z,4.53
2022-11-08T21:06:17.263Z,5.70
2022-11-08T21:09:09.889Z,4.23
2022-11-08T21:11:34.543Z,12.60
2022-11-08T21:14:03.278Z,6.07
2022-11-08T21:16:46.868Z,6.00
2022-11-08T21:19:21.327Z,6.70
2022-11-08T21:21:49.170Z,9.87
2022-11-08T21:24:17.798Z,12.07
2022-11-08T21:26:45.735Z,9.50
2022-11-08T21:29:13.597Z,15.07
2022-11-08T21:31:42.772Z,12.70
2022-11-08T21:34:10.738Z,9.53
2022-11-08T21:36:38.576Z,10.63
2022-11-08T21:39:06.487Z,10.67
2022-11-08T21:41:34.382Z,17.13
2022-11-08T21:44:02.333Z,21.67
2022-11-08T21:46:30.195Z,16.53
2022-11-08T21:49:01.673Z,11.17
2022-11-08T21:51:31.231Z,9.83
2022-11-08T21:54:00.330Z,9.47
2022-11-08T21:56:31.162Z,6.53
2022-11-08T21:59:00.084Z,7.07
2022-11-08T22:01:30.622Z,3.97
2022-11-08T22:04:00.611Z,5.13
2022-11-08T22:06:29.016Z,4.03
2022-11-08T22:08:57.146Z,4.77
2022-11-08T22:11:25.030Z,5.17
2022-11-08T22:13:52.878Z,5.00
2022-11-08T22:16:20.745Z,3.70
2022-11-08T22:19:05.513Z,4.37
2022-11-08T22:21:39.056Z,5.13
2022-11-08T22:24:07.942Z,4.37
2022-11-08T22:26:36.068Z,6.23
2022-11-08T22:29:04.340Z,4.80
2022-11-08T22:31:32.344Z,7.30
2022-11-08T22:34:00.710Z,4.37
2022-11-08T22:36:28.733Z,6.80
2022-11-08T22:38:58.100Z,4.70
2022-11-08T22:41:25.969Z,5.50
2022-11-08T22:43:53.892Z,8.70
2022-11-08T22:46:22.079Z,8.47
2022-11-08T22:48:50.312Z,5.60
2022-11-08T22:51:18.180Z,6.17
2022-11-08T22:53:46.053Z,5.23
2022-11-08T22:56:15.570Z,6.00
2022-11-08T22:58:43.691Z,5.73
2022-11-08T23:01:13.579Z,6.90
2022-11-08T23:03:41.544Z,4.60
2022-11-08T23:06:10.887Z,5.27
2022-11-08T23:08:38.803Z,4.47
2022-11-08T23:11:24.526Z,3.97
2022-11-08T23:14:11.197Z,3.13
2022-11-08T23:16:43.221Z,4.03
2022-11-08T23:19:31.811Z,3.53
2022-11-08T23:22:17.640Z,4.13
2022-11-08T23:24:46.006Z,5.53
2022-11-08T23:27:33.443Z,7.23
2022-11-08T23:30:20.284Z,7.10
2022-11-08T23:32:50.845Z,6.27
2022-11-08T23:35:20.501Z,7.27
2022-11-08T23:37:48.845Z,8.43
2022-11-08T23:40:36.224Z,8.93
2022-11-08T23:43:23.631Z,6.47
2022-11-08T23:45:53.106Z,7.50
2022-11-08T23:48:21.391Z,7.13
2022-11-08T23:50:50.760Z,7.37
2022-11-08T23:53:19.198Z,6.13
2022-11-08T23:55:47.490Z,5.40
2022-11-08T23:58:15.837Z,7.83
